This is the latest recevied weather packets stored in our database for station/object YS1AHL-29. If no packets are shown the sender has not sent any weather packets the latest 10 day(s).
| Time | Temp. | Humidity | Pressure | Rain* | Wind** | Luminosity | Snow |
|---|---|---|---|---|---|---|---|
| 1777669856 | 21.67° C | 59% | 1016 hPa | 0 mm | - | - | - |
| 1777669316 | 19.44° C | 70% | 1016 hPa | 0 mm | - | - | - |
| 1777669256 | 19.44° C | 70% | 1016 hPa | 0 mm | - | - | - |
| 1777668655 | 21.11° C | 61% | 1016 hPa | 0 mm | - | - | - |
| 1777668115 | 20.56° C | 59% | 1016 hPa | 0 mm | - | - | - |
| 1777667514 | 19.44° C | 65% | 1016 hPa | 0 mm | - | - | - |
| 1777667454 | 19.44° C | 65% | 1016 hPa | 0 mm | - | - | - |
| 1777666853 | 19.44° C | 65% | 1016 hPa | 0 mm | - | - | - |
| 1777666253 | 17.78° C | 73% | 1016 hPa | 0 mm | - | - | - |
| 1777665712 | 19.44° C | 65% | 1017 hPa | 0 mm | - | - | - |
| 1777665652 | 19.44° C | 65% | 1017 hPa | 0 mm | - | - | - |
| 1777665112 | 17.78° C | 73% | 1017 hPa | 0 mm | - | - | - |
| 1777663910 | 17.78° C | 72% | 1017 hPa | 0 mm | - | - | - |
| 1777663310 | 18.33° C | 70% | 1016 hPa | 0 mm | - | - | - |
| 1777663250 | 18.33° C | 70% | 1016 hPa | 0 mm | - | - | - |
| 1777662709 | 20.56° C | 57% | 1016 hPa | 0 mm | - | - | - |
| 1777662649 | 20.56° C | 57% | 1016 hPa | 0 mm | - | - | - |
| 1777662109 | 17.78° C | 69% | 1017 hPa | 0 mm | - | - | - |
| 1777662049 | 17.78° C | 69% | 1017 hPa | 0 mm | - | - | - |
| 1777661448 | 18.33° C | 70% | 1017 hPa | 0 mm | - | - | - |
| 1777660307 | 17.22° C | 74% | 1017 hPa | 0 mm | - | - | - |
| 1777660247 | 17.22° C | 74% | 1017 hPa | 0 mm | - | - | - |
| 1777659706 | 16.67° C | 74% | 1017 hPa | 0 mm | - | - | - |
| 1777659646 | 16.67° C | 74% | 1017 hPa | 0 mm | - | - | - |
| 1777659106 | 18.33° C | 64% | 1017 hPa | 0 mm | - | - | - |
* Rain latest hour (hover to see other rain measurements)
** Current wind speed in m/s (hover to see current wind gust speed)